sensor_id;sensor_type;location;lat;lon;timestamp;P1;durP1;ratioP1;P2;durP2;ratioP2
53411;SDS011;39307;52.870;13.660;2023-07-29T00:00:46;5.70;;;3.20;;
53411;SDS011;39307;52.870;13.660;2023-07-29T00:03:24;5.18;;;2.95;;
53411;SDS011;39307;52.870;13.660;2023-07-29T00:06:11;8.10;;;3.60;;
53411;SDS011;39307;52.870;13.660;2023-07-29T00:08:55;6.63;;;4.00;;
53411;SDS011;39307;52.870;13.660;2023-07-29T00:11:25;7.03;;;4.00;;
53411;SDS011;39307;52.870;13.660;2023-07-29T00:13:51;6.32;;;4.10;;
53411;SDS011;39307;52.870;13.660;2023-07-29T00:16:23;6.65;;;4.10;;
53411;SDS011;39307;52.870;13.660;2023-07-29T00:18:55;6.67;;;4.47;;
53411;SDS011;39307;52.870;13.660;2023-07-29T00:21:24;6.32;;;4.10;;
53411;SDS011;39307;52.870;13.660;2023-07-29T00:23:56;7.10;;;4.53;;
53411;SDS011;39307;52.870;13.660;2023-07-29T00:26:28;6.70;;;4.87;;
53411;SDS011;39307;52.870;13.660;2023-07-29T00:28:58;6.82;;;4.65;;
53411;SDS011;39307;52.870;13.660;2023-07-29T00:31:27;7.28;;;4.60;;
53411;SDS011;39307;52.870;13.660;2023-07-29T00:33:54;7.80;;;4.93;;
53411;SDS011;39307;52.870;13.660;2023-07-29T00:36:30;8.95;;;6.03;;
53411;SDS011;39307;52.870;13.660;2023-07-29T00:39:17;8.48;;;5.55;;
53411;SDS011;39307;52.870;13.660;2023-07-29T00:41:47;6.47;;;5.03;;
53411;SDS011;39307;52.870;13.660;2023-07-29T00:44:21;6.18;;;4.65;;
53411;SDS011;39307;52.870;13.660;2023-07-29T00:46:53;8.68;;;5.45;;
53411;SDS011;39307;52.870;13.660;2023-07-29T00:49:29;7.53;;;4.82;;
53411;SDS011;39307;52.870;13.660;2023-07-29T00:51:58;7.50;;;4.90;;
53411;SDS011;39307;52.870;13.660;2023-07-29T00:55:05;9.07;;;5.25;;
53411;SDS011;39307;52.870;13.660;2023-07-29T00:57:38;6.80;;;4.43;;
53411;SDS011;39307;52.870;13.660;2023-07-29T01:00:08;6.77;;;4.60;;
53411;SDS011;39307;52.870;13.660;2023-07-29T01:02:55;6.88;;;4.80;;
53411;SDS011;39307;52.870;13.660;2023-07-29T01:05:25;7.50;;;4.53;;
53411;SDS011;39307;52.870;13.660;2023-07-29T01:17:30;6.07;;;4.45;;
53411;SDS011;39307;52.870;13.660;2023-07-29T01:20:13;7.20;;;4.35;;
53411;SDS011;39307;52.870;13.660;2023-07-29T01:22:50;6.70;;;4.38;;
53411;SDS011;39307;52.870;13.660;2023-07-29T01:25:30;7.72;;;5.15;;
53411;SDS011;39307;52.870;13.660;2023-07-29T01:28:00;6.38;;;4.55;;
53411;SDS011;39307;52.870;13.660;2023-07-29T01:30:39;7.25;;;5.30;;
53411;SDS011;39307;52.870;13.660;2023-07-29T01:36:29;7.47;;;4.78;;
53411;SDS011;39307;52.870;13.660;2023-07-29T01:39:19;6.88;;;4.65;;
53411;SDS011;39307;52.870;13.660;2023-07-29T01:42:12;7.05;;;4.65;;
53411;SDS011;39307;52.870;13.660;2023-07-29T01:45:06;6.20;;;4.07;;
53411;SDS011;39307;52.870;13.660;2023-07-29T01:47:47;6.78;;;4.35;;
53411;SDS011;39307;52.870;13.660;2023-07-29T01:50:39;7.18;;;4.28;;
53411;SDS011;39307;52.870;13.660;2023-07-29T01:56:26;6.10;;;4.38;;
53411;SDS011;39307;52.870;13.660;2023-07-29T01:58:56;5.70;;;3.97;;
53411;SDS011;39307;52.870;13.660;2023-07-29T02:01:48;6.10;;;3.87;;
53411;SDS011;39307;52.870;13.660;2023-07-29T02:04:25;5.72;;;4.00;;
53411;SDS011;39307;52.870;13.660;2023-07-29T02:07:00;5.93;;;4.28;;
53411;SDS011;39307;52.870;13.660;2023-07-29T02:09:35;5.70;;;4.00;;
53411;SDS011;39307;52.870;13.660;2023-07-29T02:12:08;6.33;;;3.50;;
53411;SDS011;39307;52.870;13.660;2023-07-29T02:17:33;8.98;;;3.70;;
53411;SDS011;39307;52.870;13.660;2023-07-29T02:23:29;6.97;;;3.00;;
53411;SDS011;39307;52.870;13.660;2023-07-29T02:26:24;5.28;;;3.33;;
53411;SDS011;39307;52.870;13.660;2023-07-29T02:29:17;6.68;;;3.80;;
53411;SDS011;39307;52.870;13.660;2023-07-29T02:31:52;5.57;;;3.70;;
53411;SDS011;39307;52.870;13.660;2023-07-29T02:37:41;7.68;;;4.00;;
53411;SDS011;39307;52.870;13.660;2023-07-29T02:40:19;7.43;;;4.43;;
53411;SDS011;39307;52.870;13.660;2023-07-29T02:45:53;7.95;;;4.50;;
53411;SDS011;39307;52.870;13.660;2023-07-29T02:48:37;10.10;;;5.40;;
53411;SDS011;39307;52.870;13.660;2023-07-29T02:51:52;7.30;;;4.85;;
53411;SDS011;39307;52.870;13.660;2023-07-29T02:54:09;8.57;;;5.25;;
53411;SDS011;39307;52.870;13.660;2023-07-29T02:56:50;8.70;;;5.95;;
53411;SDS011;39307;52.870;13.660;2023-07-29T02:59:22;9.05;;;5.95;;
53411;SDS011;39307;52.870;13.660;2023-07-29T03:02:38;9.65;;;6.10;;
53411;SDS011;39307;52.870;13.660;2023-07-29T03:05:30;9.27;;;6.15;;
53411;SDS011;39307;52.870;13.660;2023-07-29T03:08:15;7.97;;;5.47;;
53411;SDS011;39307;52.870;13.660;2023-07-29T03:11:07;8.10;;;5.60;;
53411;SDS011;39307;52.870;13.660;2023-07-29T03:13:45;9.10;;;6.32;;
53411;SDS011;39307;52.870;13.660;2023-07-29T03:16:20;9.88;;;6.10;;
53411;SDS011;39307;52.870;13.660;2023-07-29T03:18:56;8.90;;;6.30;;
53411;SDS011;39307;52.870;13.660;2023-07-29T03:21:33;7.75;;;5.53;;
53411;SDS011;39307;52.870;13.660;2023-07-29T03:24:24;8.87;;;6.30;;
53411;SDS011;39307;52.870;13.660;2023-07-29T03:26:56;8.02;;;5.88;;
53411;SDS011;39307;52.870;13.660;2023-07-29T03:29:37;8.18;;;6.00;;
53411;SDS011;39307;52.870;13.660;2023-07-29T03:32:06;7.17;;;5.50;;
53411;SDS011;39307;52.870;13.660;2023-07-29T03:43:59;7.55;;;5.75;;
53411;SDS011;39307;52.870;13.660;2023-07-29T03:46:29;8.37;;;5.50;;
53411;SDS011;39307;52.870;13.660;2023-07-29T03:48:58;7.90;;;5.70;;
53411;SDS011;39307;52.870;13.660;2023-07-29T03:51:30;7.68;;;5.47;;
53411;SDS011;39307;52.870;13.660;2023-07-29T03:53:56;7.55;;;5.75;;
53411;SDS011;39307;52.870;13.660;2023-07-29T03:56:44;7.28;;;5.72;;
53411;SDS011;39307;52.870;13.660;2023-07-29T03:59:29;9.30;;;5.87;;
53411;SDS011;39307;52.870;13.660;2023-07-29T04:02:08;8.70;;;6.50;;
53411;SDS011;39307;52.870;13.660;2023-07-29T04:04:57;7.10;;;5.17;;
53411;SDS011;39307;52.870;13.660;2023-07-29T04:07:48;7.55;;;5.63;;
53411;SDS011;39307;52.870;13.660;2023-07-29T04:10:24;7.70;;;5.72;;
53411;SDS011;39307;52.870;13.660;2023-07-29T04:12:59;7.82;;;5.60;;
53411;SDS011;39307;52.870;13.660;2023-07-29T04:18:30;9.13;;;6.53;;
53411;SDS011;39307;52.870;13.660;2023-07-29T04:21:02;9.88;;;7.63;;
53411;SDS011;39307;52.870;13.660;2023-07-29T04:23:29;9.40;;;7.15;;
53411;SDS011;39307;52.870;13.660;2023-07-29T04:25:55;10.90;;;7.38;;
53411;SDS011;39307;52.870;13.660;2023-07-29T04:28:44;10.07;;;6.80;;
53411;SDS011;39307;52.870;13.660;2023-07-29T04:31:39;9.02;;;6.75;;
53411;SDS011;39307;52.870;13.660;2023-07-29T04:34:11;10.40;;;7.65;;
53411;SDS011;39307;52.870;13.660;2023-07-29T04:36:48;9.35;;;7.72;;
53411;SDS011;39307;52.870;13.660;2023-07-29T04:39:56;8.75;;;6.78;;
53411;SDS011;39307;52.870;13.660;2023-07-29T04:42:20;9.75;;;7.25;;
53411;SDS011;39307;52.870;13.660;2023-07-29T04:44:52;10.00;;;8.20;;
53411;SDS011;39307;52.870;13.660;2023-07-29T04:50:40;8.55;;;6.65;;
53411;SDS011;39307;52.870;13.660;2023-07-29T04:56:09;9.55;;;7.30;;
53411;SDS011;39307;52.870;13.660;2023-07-29T04:58:48;8.63;;;6.70;;
53411;SDS011;39307;52.870;13.660;2023-07-29T05:01:24;8.77;;;6.50;;
53411;SDS011;39307;52.870;13.660;2023-07-29T05:03:59;8.52;;;6.35;;
53411;SDS011;39307;52.870;13.660;2023-07-29T05:06:28;8.75;;;7.10;;
53411;SDS011;39307;52.870;13.660;2023-07-29T05:09:04;9.43;;;7.17;;
53411;SDS011;39307;52.870;13.660;2023-07-29T05:12:16;8.20;;;6.55;;
53411;SDS011;39307;52.870;13.660;2023-07-29T05:14:42;9.05;;;6.75;;
53411;SDS011;39307;52.870;13.660;2023-07-29T05:20:01;9.85;;;7.32;;
53411;SDS011;39307;52.870;13.660;2023-07-29T05:22:30;8.80;;;7.03;;
53411;SDS011;39307;52.870;13.660;2023-07-29T05:25:06;8.80;;;5.93;;
53411;SDS011;39307;52.870;13.660;2023-07-29T05:27:58;9.35;;;6.55;;
53411;SDS011;39307;52.870;13.660;2023-07-29T05:30:27;8.93;;;6.57;;
53411;SDS011;39307;52.870;13.660;2023-07-29T05:33:09;9.50;;;7.03;;
53411;SDS011;39307;52.870;13.660;2023-07-29T05:35:41;9.60;;;6.95;;
53411;SDS011;39307;52.870;13.660;2023-07-29T05:38:19;9.57;;;7.57;;
53411;SDS011;39307;52.870;13.660;2023-07-29T05:40:51;9.32;;;7.45;;
53411;SDS011;39307;52.870;13.660;2023-07-29T05:43:26;10.30;;;8.00;;
53411;SDS011;39307;52.870;13.660;2023-07-29T05:45:53;11.07;;;8.40;;
53411;SDS011;39307;52.870;13.660;2023-07-29T05:49:01;12.93;;;9.07;;
53411;SDS011;39307;52.870;13.660;2023-07-29T05:51:31;11.47;;;9.10;;
53411;SDS011;39307;52.870;13.660;2023-07-29T05:54:03;11.23;;;9.13;;
53411;SDS011;39307;52.870;13.660;2023-07-29T05:56:47;11.57;;;8.53;;
53411;SDS011;39307;52.870;13.660;2023-07-29T05:59:21;11.82;;;9.45;;
53411;SDS011;39307;52.870;13.660;2023-07-29T06:01:57;11.60;;;8.85;;
53411;SDS011;39307;52.870;13.660;2023-07-29T06:04:36;11.20;;;8.65;;
53411;SDS011;39307;52.870;13.660;2023-07-29T06:07:06;10.57;;;8.45;;
53411;SDS011;39307;52.870;13.660;2023-07-29T06:09:52;11.85;;;9.05;;
53411;SDS011;39307;52.870;13.660;2023-07-29T06:12:21;12.60;;;9.00;;
53411;SDS011;39307;52.870;13.660;2023-07-29T06:14:53;12.73;;;9.98;;
53411;SDS011;39307;52.870;13.660;2023-07-29T06:17:20;11.90;;;9.68;;
53411;SDS011;39307;52.870;13.660;2023-07-29T06:19:51;13.43;;;10.17;;
53411;SDS011;39307;52.870;13.660;2023-07-29T06:22:25;12.40;;;10.13;;
53411;SDS011;39307;52.870;13.660;2023-07-29T06:25:13;10.50;;;8.77;;
53411;SDS011;39307;52.870;13.660;2023-07-29T06:27:59;11.57;;;9.18;;
53411;SDS011;39307;52.870;13.660;2023-07-29T06:30:26;10.83;;;8.20;;
53411;SDS011;39307;52.870;13.660;2023-07-29T06:32:52;10.50;;;8.70;;
53411;SDS011;39307;52.870;13.660;2023-07-29T06:35:19;11.02;;;9.38;;
53411;SDS011;39307;52.870;13.660;2023-07-29T06:37:51;11.30;;;9.40;;
53411;SDS011;39307;52.870;13.660;2023-07-29T06:40:19;11.13;;;8.90;;
53411;SDS011;39307;52.870;13.660;2023-07-29T06:42:59;10.48;;;7.95;;
53411;SDS011;39307;52.870;13.660;2023-07-29T06:45:59;8.93;;;7.53;;
53411;SDS011;39307;52.870;13.660;2023-07-29T06:48:35;10.02;;;7.43;;
53411;SDS011;39307;52.870;13.660;2023-07-29T06:51:01;9.57;;;7.50;;
53411;SDS011;39307;52.870;13.660;2023-07-29T06:53:27;8.90;;;7.40;;
53411;SDS011;39307;52.870;13.660;2023-07-29T06:55:55;9.55;;;6.80;;
53411;SDS011;39307;52.870;13.660;2023-07-29T06:58:48;9.50;;;6.60;;
53411;SDS011;39307;52.870;13.660;2023-07-29T07:01:18;10.23;;;6.68;;
53411;SDS011;39307;52.870;13.660;2023-07-29T07:03:45;9.00;;;7.30;;
53411;SDS011;39307;52.870;13.660;2023-07-29T07:06:26;8.60;;;6.70;;
53411;SDS011;39307;52.870;13.660;2023-07-29T07:09:02;9.07;;;6.78;;
53411;SDS011;39307;52.870;13.660;2023-07-29T07:11:55;8.15;;;6.32;;
53411;SDS011;39307;52.870;13.660;2023-07-29T07:14:29;8.20;;;5.90;;
53411;SDS011;39307;52.870;13.660;2023-07-29T07:17:03;9.45;;;6.15;;
53411;SDS011;39307;52.870;13.660;2023-07-29T07:19:37;7.68;;;5.55;;
53411;SDS011;39307;52.870;13.660;2023-07-29T07:22:13;7.10;;;5.22;;
53411;SDS011;39307;52.870;13.660;2023-07-29T07:24:46;7.97;;;5.27;;
53411;SDS011;39307;52.870;13.660;2023-07-29T07:27:31;7.20;;;4.88;;
53411;SDS011;39307;52.870;13.660;2023-07-29T07:30:14;7.47;;;4.60;;
53411;SDS011;39307;52.870;13.660;2023-07-29T07:32:47;5.93;;;4.55;;
53411;SDS011;39307;52.870;13.660;2023-07-29T07:35:30;6.47;;;4.38;;
53411;SDS011;39307;52.870;13.660;2023-07-29T07:38:13;6.32;;;4.30;;
53411;SDS011;39307;52.870;13.660;2023-07-29T07:40:42;6.00;;;4.40;;
53411;SDS011;39307;52.870;13.660;2023-07-29T07:43:24;6.13;;;4.20;;
53411;SDS011;39307;52.870;13.660;2023-07-29T07:45:50;6.90;;;4.47;;
53411;SDS011;39307;52.870;13.660;2023-07-29T07:48:20;5.67;;;4.23;;
53411;SDS011;39307;52.870;13.660;2023-07-29T07:50:52;6.60;;;4.87;;
53411;SDS011;39307;52.870;13.660;2023-07-29T07:53:19;5.80;;;4.32;;
53411;SDS011;39307;52.870;13.660;2023-07-29T07:55:45;6.43;;;3.95;;
53411;SDS011;39307;52.870;13.660;2023-07-29T07:58:11;6.65;;;4.50;;
53411;SDS011;39307;52.870;13.660;2023-07-29T08:00:37;7.28;;;4.50;;
53411;SDS011;39307;52.870;13.660;2023-07-29T08:03:03;7.03;;;4.60;;
53411;SDS011;39307;52.870;13.660;2023-07-29T08:05:30;7.03;;;4.40;;
53411;SDS011;39307;52.870;13.660;2023-07-29T08:07:56;5.93;;;4.10;;
53411;SDS011;39307;52.870;13.660;2023-07-29T08:10:22;6.83;;;4.40;;
53411;SDS011;39307;52.870;13.660;2023-07-29T08:12:51;7.83;;;4.50;;
53411;SDS011;39307;52.870;13.660;2023-07-29T08:15:18;7.18;;;4.68;;
53411;SDS011;39307;52.870;13.660;2023-07-29T08:17:45;6.57;;;4.40;;
53411;SDS011;39307;52.870;13.660;2023-07-29T08:20:11;7.07;;;4.75;;
53411;SDS011;39307;52.870;13.660;2023-07-29T08:22:37;7.83;;;4.53;;
53411;SDS011;39307;52.870;13.660;2023-07-29T08:25:04;6.00;;;4.63;;
53411;SDS011;39307;52.870;13.660;2023-07-29T08:27:30;6.57;;;4.15;;
53411;SDS011;39307;52.870;13.660;2023-07-29T08:29:58;5.82;;;4.50;;
53411;SDS011;39307;52.870;13.660;2023-07-29T08:32:25;7.07;;;4.38;;
53411;SDS011;39307;52.870;13.660;2023-07-29T08:34:53;5.95;;;4.65;;
53411;SDS011;39307;52.870;13.660;2023-07-29T08:37:27;7.13;;;4.30;;
53411;SDS011;39307;52.870;13.660;2023-07-29T08:39:53;5.97;;;3.97;;
53411;SDS011;39307;52.870;13.660;2023-07-29T08:42:19;6.43;;;4.10;;
53411;SDS011;39307;52.870;13.660;2023-07-29T08:44:49;5.78;;;3.67;;
53411;SDS011;39307;52.870;13.660;2023-07-29T08:47:17;5.03;;;3.50;;
53411;SDS011;39307;52.870;13.660;2023-07-29T08:49:44;5.97;;;3.58;;
53411;SDS011;39307;52.870;13.660;2023-07-29T08:52:16;5.20;;;3.67;;
53411;SDS011;39307;52.870;13.660;2023-07-29T08:54:46;7.18;;;3.60;;
53411;SDS011;39307;52.870;13.660;2023-07-29T08:57:13;5.90;;;3.50;;
53411;SDS011;39307;52.870;13.660;2023-07-29T08:59:41;5.47;;;3.53;;
53411;SDS011;39307;52.870;13.660;2023-07-29T09:02:09;5.13;;;3.53;;
53411;SDS011;39307;52.870;13.660;2023-07-29T09:04:35;4.90;;;3.40;;
53411;SDS011;39307;52.870;13.660;2023-07-29T09:07:01;5.07;;;3.40;;
53411;SDS011;39307;52.870;13.660;2023-07-29T09:09:30;4.85;;;3.40;;
53411;SDS011;39307;52.870;13.660;2023-07-29T09:12:05;4.68;;;3.20;;
53411;SDS011;39307;52.870;13.660;2023-07-29T09:14:43;5.18;;;3.38;;
53411;SDS011;39307;52.870;13.660;2023-07-29T09:17:10;4.55;;;3.30;;
53411;SDS011;39307;52.870;13.660;2023-07-29T09:19:45;5.57;;;3.40;;
53411;SDS011;39307;52.870;13.660;2023-07-29T09:22:20;4.78;;;3.25;;
53411;SDS011;39307;52.870;13.660;2023-07-29T09:24:56;4.85;;;3.30;;
53411;SDS011;39307;52.870;13.660;2023-07-29T09:27:26;5.13;;;3.50;;
53411;SDS011;39307;52.870;13.660;2023-07-29T09:30:04;4.40;;;3.25;;
53411;SDS011;39307;52.870;13.660;2023-07-29T09:32:34;6.70;;;3.42;;
53411;SDS011;39307;52.870;13.660;2023-07-29T09:35:09;5.93;;;3.60;;
53411;SDS011;39307;52.870;13.660;2023-07-29T09:37:37;4.50;;;3.47;;
53411;SDS011;39307;52.870;13.660;2023-07-29T09:40:04;6.25;;;3.58;;
53411;SDS011;39307;52.870;13.660;2023-07-29T09:42:32;6.03;;;3.67;;
53411;SDS011;39307;52.870;13.660;2023-07-29T09:44:59;5.05;;;3.28;;
53411;SDS011;39307;52.870;13.660;2023-07-29T09:47:25;5.47;;;3.63;;
53411;SDS011;39307;52.870;13.660;2023-07-29T09:49:52;4.80;;;3.30;;
53411;SDS011;39307;52.870;13.660;2023-07-29T09:52:19;6.20;;;3.23;;
53411;SDS011;39307;52.870;13.660;2023-07-29T09:54:48;6.97;;;3.03;;
53411;SDS011;39307;52.870;13.660;2023-07-29T09:57:14;12.50;;;3.40;;
53411;SDS011;39307;52.870;13.660;2023-07-29T09:59:53;4.30;;;3.20;;
53411;SDS011;39307;52.870;13.660;2023-07-29T10:02:21;4.53;;;3.07;;
53411;SDS011;39307;52.870;13.660;2023-07-29T10:04:48;5.47;;;3.40;;
53411;SDS011;39307;52.870;13.660;2023-07-29T10:07:15;5.72;;;3.35;;
53411;SDS011;39307;52.870;13.660;2023-07-29T10:09:42;5.03;;;3.60;;
53411;SDS011;39307;52.870;13.660;2023-07-29T10:12:11;5.07;;;3.60;;
53411;SDS011;39307;52.870;13.660;2023-07-29T10:14:38;5.50;;;3.53;;
53411;SDS011;39307;52.870;13.660;2023-07-29T10:17:05;5.43;;;3.50;;
53411;SDS011;39307;52.870;13.660;2023-07-29T10:19:32;6.20;;;3.63;;
53411;SDS011;39307;52.870;13.660;2023-07-29T10:22:00;6.18;;;3.45;;
53411;SDS011;39307;52.870;13.660;2023-07-29T10:24:29;5.32;;;3.80;;
53411;SDS011;39307;52.870;13.660;2023-07-29T10:26:59;6.72;;;3.80;;
53411;SDS011;39307;52.870;13.660;2023-07-29T10:29:33;5.50;;;4.05;;
53411;SDS011;39307;52.870;13.660;2023-07-29T10:32:04;8.18;;;3.80;;
53411;SDS011;39307;52.870;13.660;2023-07-29T10:34:31;6.03;;;3.88;;
53411;SDS011;39307;52.870;13.660;2023-07-29T10:36:58;6.00;;;3.60;;
53411;SDS011;39307;52.870;13.660;2023-07-29T10:39:25;7.32;;;3.92;;
53411;SDS011;39307;52.870;13.660;2023-07-29T10:41:57;5.68;;;3.70;;
53411;SDS011;39307;52.870;13.660;2023-07-29T10:47:16;6.20;;;3.63;;
53411;SDS011;39307;52.870;13.660;2023-07-29T10:49:53;6.18;;;3.40;;
53411;SDS011;39307;52.870;13.660;2023-07-29T10:55:24;4.88;;;3.50;;
53411;SDS011;39307;52.870;13.660;2023-07-29T10:57:51;6.40;;;3.50;;
53411;SDS011;39307;52.870;13.660;2023-07-29T11:00:19;4.47;;;3.40;;
53411;SDS011;39307;52.870;13.660;2023-07-29T11:02:56;4.50;;;3.23;;
53411;SDS011;39307;52.870;13.660;2023-07-29T11:05:26;7.18;;;3.58;;
53411;SDS011;39307;52.870;13.660;2023-07-29T11:08:15;6.70;;;3.50;;
53411;SDS011;39307;52.870;13.660;2023-07-29T11:13:29;6.25;;;3.38;;
53411;SDS011;39307;52.870;13.660;2023-07-29T11:15:57;8.07;;;3.60;;
53411;SDS011;39307;52.870;13.660;2023-07-29T11:18:31;6.22;;;3.50;;
53411;SDS011;39307;52.870;13.660;2023-07-29T11:20:58;5.72;;;3.35;;
53411;SDS011;39307;52.870;13.660;2023-07-29T11:23:32;5.33;;;3.50;;
53411;SDS011;39307;52.870;13.660;2023-07-29T11:25:59;5.00;;;3.53;;
53411;SDS011;39307;52.870;13.660;2023-07-29T11:28:26;5.53;;;3.63;;
53411;SDS011;39307;52.870;13.660;2023-07-29T11:30:56;7.82;;;4.03;;
53411;SDS011;39307;52.870;13.660;2023-07-29T11:33:24;7.93;;;3.60;;
53411;SDS011;39307;52.870;13.660;2023-07-29T11:35:54;6.38;;;3.90;;
53411;SDS011;39307;52.870;13.660;2023-07-29T11:38:21;4.95;;;3.40;;
53411;SDS011;39307;52.870;13.660;2023-07-29T11:40:58;7.22;;;3.80;;
53411;SDS011;39307;52.870;13.660;2023-07-29T11:43:34;5.23;;;3.63;;
53411;SDS011;39307;52.870;13.660;2023-07-29T11:46:07;7.47;;;3.67;;
53411;SDS011;39307;52.870;13.660;2023-07-29T11:49:07;6.85;;;3.50;;
53411;SDS011;39307;52.870;13.660;2023-07-29T11:51:34;5.47;;;3.45;;
53411;SDS011;39307;52.870;13.660;2023-07-29T11:54:02;7.00;;;3.70;;
53411;SDS011;39307;52.870;13.660;2023-07-29T11:56:32;7.80;;;3.83;;
53411;SDS011;39307;52.870;13.660;2023-07-29T11:59:10;6.80;;;3.80;;
53411;SDS011;39307;52.870;13.660;2023-07-29T12:01:49;6.25;;;3.90;;
53411;SDS011;39307;52.870;13.660;2023-07-29T12:04:22;8.60;;;5.20;;
53411;SDS011;39307;52.870;13.660;2023-07-29T12:06:59;6.35;;;4.10;;
53411;SDS011;39307;52.870;13.660;2023-07-29T12:09:49;7.67;;;4.07;;
53411;SDS011;39307;52.870;13.660;2023-07-29T12:12:24;8.25;;;4.30;;
53411;SDS011;39307;52.870;13.660;2023-07-29T12:15:01;7.28;;;4.05;;
53411;SDS011;39307;52.870;13.660;2023-07-29T12:17:31;6.68;;;4.30;;
53411;SDS011;39307;52.870;13.660;2023-07-29T12:20:07;9.65;;;4.47;;
53411;SDS011;39307;52.870;13.660;2023-07-29T12:22:37;7.60;;;4.23;;
53411;SDS011;39307;52.870;13.660;2023-07-29T12:25:09;8.13;;;3.83;;
53411;SDS011;39307;52.870;13.660;2023-07-29T12:28:12;8.60;;;4.18;;
53411;SDS011;39307;52.870;13.660;2023-07-29T12:30:43;7.13;;;3.17;;
53411;SDS011;39307;52.870;13.660;2023-07-29T12:33:38;6.05;;;2.80;;
53411;SDS011;39307;52.870;13.660;2023-07-29T12:37:06;5.90;;;3.13;;
53411;SDS011;39307;52.870;13.660;2023-07-29T12:39:41;5.22;;;3.20;;
53411;SDS011;39307;52.870;13.660;2023-07-29T12:42:19;5.25;;;3.13;;
53411;SDS011;39307;52.870;13.660;2023-07-29T12:44:54;5.15;;;3.05;;
53411;SDS011;39307;52.870;13.660;2023-07-29T12:47:21;4.80;;;2.78;;
53411;SDS011;39307;52.870;13.660;2023-07-29T12:49:53;6.70;;;3.00;;
53411;SDS011;39307;52.870;13.660;2023-07-29T12:52:34;4.68;;;2.53;;
53411;SDS011;39307;52.870;13.660;2023-07-29T12:55:08;4.28;;;2.40;;
53411;SDS011;39307;52.870;13.660;2023-07-29T12:57:34;3.85;;;2.30;;
53411;SDS011;39307;52.870;13.660;2023-07-29T13:00:01;4.47;;;2.25;;
53411;SDS011;39307;52.870;13.660;2023-07-29T13:02:36;5.23;;;2.30;;
53411;SDS011;39307;52.870;13.660;2023-07-29T13:05:11;3.65;;;2.10;;
53411;SDS011;39307;52.870;13.660;2023-07-29T13:07:41;3.80;;;2.20;;
53411;SDS011;39307;52.870;13.660;2023-07-29T13:10:08;4.90;;;2.30;;
53411;SDS011;39307;52.870;13.660;2023-07-29T13:12:35;4.32;;;2.33;;
53411;SDS011;39307;52.870;13.660;2023-07-29T13:15:02;3.87;;;2.20;;
53411;SDS011;39307;52.870;13.660;2023-07-29T13:17:31;4.32;;;2.28;;
53411;SDS011;39307;52.870;13.660;2023-07-29T13:20:00;4.60;;;2.42;;
53411;SDS011;39307;52.870;13.660;2023-07-29T13:22:37;3.67;;;2.20;;
53411;SDS011;39307;52.870;13.660;2023-07-29T13:25:10;4.70;;;2.30;;
53411;SDS011;39307;52.870;13.660;2023-07-29T13:27:39;4.97;;;2.58;;
53411;SDS011;39307;52.870;13.660;2023-07-29T13:30:10;4.47;;;2.53;;
53411;SDS011;39307;52.870;13.660;2023-07-29T13:32:42;4.57;;;2.70;;
53411;SDS011;39307;52.870;13.660;2023-07-29T13:35:17;4.60;;;2.83;;
53411;SDS011;39307;52.870;13.660;2023-07-29T13:38:04;4.93;;;2.70;;
53411;SDS011;39307;52.870;13.660;2023-07-29T13:40:49;5.18;;;2.63;;
53411;SDS011;39307;52.870;13.660;2023-07-29T13:43:15;4.45;;;2.80;;
53411;SDS011;39307;52.870;13.660;2023-07-29T13:45:42;3.97;;;2.40;;
53411;SDS011;39307;52.870;13.660;2023-07-29T13:48:14;4.50;;;2.38;;
53411;SDS011;39307;52.870;13.660;2023-07-29T13:54:13;5.20;;;2.50;;
53411;SDS011;39307;52.870;13.660;2023-07-29T14:00:36;3.28;;;2.10;;
53411;SDS011;39307;52.870;13.660;2023-07-29T14:16:11;4.13;;;1.93;;
53411;SDS011;39307;52.870;13.660;2023-07-29T14:21:23;2.90;;;1.70;;
53411;SDS011;39307;52.870;13.660;2023-07-29T14:24:08;6.27;;;1.80;;
53411;SDS011;39307;52.870;13.660;2023-07-29T14:26:52;3.03;;;1.75;;
53411;SDS011;39307;52.870;13.660;2023-07-29T14:32:09;2.65;;;1.60;;
53411;SDS011;39307;52.870;13.660;2023-07-29T14:34:38;2.35;;;1.40;;
53411;SDS011;39307;52.870;13.660;2023-07-29T14:37:13;3.50;;;1.50;;
53411;SDS011;39307;52.870;13.660;2023-07-29T14:39:39;3.92;;;1.63;;
53411;SDS011;39307;52.870;13.660;2023-07-29T14:42:12;3.00;;;1.50;;
53411;SDS011;39307;52.870;13.660;2023-07-29T14:44:38;3.10;;;1.50;;
53411;SDS011;39307;52.870;13.660;2023-07-29T14:47:13;3.10;;;1.58;;
53411;SDS011;39307;52.870;13.660;2023-07-29T14:49:44;2.92;;;1.48;;
53411;SDS011;39307;52.870;13.660;2023-07-29T14:52:22;3.50;;;1.67;;
53411;SDS011;39307;52.870;13.660;2023-07-29T14:54:55;3.45;;;1.40;;
53411;SDS011;39307;52.870;13.660;2023-07-29T14:57:24;3.88;;;1.55;;
53411;SDS011;39307;52.870;13.660;2023-07-29T14:59:51;5.50;;;1.70;;
53411;SDS011;39307;52.870;13.660;2023-07-29T15:02:26;3.50;;;1.53;;
53411;SDS011;39307;52.870;13.660;2023-07-29T15:05:13;4.50;;;1.33;;
53411;SDS011;39307;52.870;13.660;2023-07-29T15:08:00;2.35;;;1.30;;
53411;SDS011;39307;52.870;13.660;2023-07-29T15:10:49;2.65;;;1.50;;
53411;SDS011;39307;52.870;13.660;2023-07-29T15:16:23;2.90;;;1.40;;
53411;SDS011;39307;52.870;13.660;2023-07-29T15:19:23;4.70;;;2.60;;
53411;SDS011;39307;52.870;13.660;2023-07-29T15:22:17;4.18;;;1.60;;
53411;SDS011;39307;52.870;13.660;2023-07-29T15:34:44;7.05;;;4.60;;
53411;SDS011;39307;52.870;13.660;2023-07-29T15:47:04;2.60;;;1.37;;
53411;SDS011;39307;52.870;13.660;2023-07-29T15:52:10;2.10;;;1.17;;
53411;SDS011;39307;52.870;13.660;2023-07-29T15:54:36;3.10;;;1.60;;
53411;SDS011;39307;52.870;13.660;2023-07-29T15:57:20;3.28;;;1.33;;
53411;SDS011;39307;52.870;13.660;2023-07-29T15:59:53;2.35;;;1.38;;
53411;SDS011;39307;52.870;13.660;2023-07-29T16:02:20;3.15;;;1.40;;
53411;SDS011;39307;52.870;13.660;2023-07-29T16:04:49;3.38;;;1.58;;
53411;SDS011;39307;52.870;13.660;2023-07-29T16:07:15;3.08;;;1.65;;
53411;SDS011;39307;52.870;13.660;2023-07-29T16:09:48;2.73;;;1.57;;
53411;SDS011;39307;52.870;13.660;2023-07-29T16:12:20;3.03;;;1.38;;
53411;SDS011;39307;52.870;13.660;2023-07-29T16:15:02;2.78;;;1.50;;
53411;SDS011;39307;52.870;13.660;2023-07-29T16:17:30;3.80;;;2.35;;
53411;SDS011;39307;52.870;13.660;2023-07-29T16:20:01;3.78;;;1.98;;
53411;SDS011;39307;52.870;13.660;2023-07-29T16:22:28;4.80;;;2.08;;
53411;SDS011;39307;52.870;13.660;2023-07-29T16:25:00;5.55;;;3.63;;
53411;SDS011;39307;52.870;13.660;2023-07-29T16:27:30;4.13;;;2.83;;
53411;SDS011;39307;52.870;13.660;2023-07-29T16:29:56;3.60;;;2.30;;
53411;SDS011;39307;52.870;13.660;2023-07-29T16:32:23;2.97;;;2.05;;
53411;SDS011;39307;52.870;13.660;2023-07-29T16:35:09;3.22;;;2.10;;
53411;SDS011;39307;52.870;13.660;2023-07-29T16:40:11;4.07;;;2.05;;
53411;SDS011;39307;52.870;13.660;2023-07-29T16:42:41;4.95;;;1.90;;
53411;SDS011;39307;52.870;13.660;2023-07-29T16:45:16;3.40;;;1.90;;
53411;SDS011;39307;52.870;13.660;2023-07-29T16:47:42;3.58;;;1.90;;
53411;SDS011;39307;52.870;13.660;2023-07-29T16:50:14;3.53;;;1.60;;
53411;SDS011;39307;52.870;13.660;2023-07-29T16:52:41;3.80;;;1.92;;
53411;SDS011;39307;52.870;13.660;2023-07-29T16:55:16;4.85;;;2.17;;
53411;SDS011;39307;52.870;13.660;2023-07-29T16:57:51;4.45;;;1.85;;
53411;SDS011;39307;52.870;13.660;2023-07-29T17:00:20;3.07;;;1.90;;
53411;SDS011;39307;52.870;13.660;2023-07-29T17:02:46;4.77;;;1.80;;
53411;SDS011;39307;52.870;13.660;2023-07-29T17:05:22;3.17;;;1.95;;
53411;SDS011;39307;52.870;13.660;2023-07-29T17:07:54;4.72;;;1.90;;